Terminal Aerodrome Forecast
Issued by NWS

Home | Current Version | Previous Version | Text Only | Print | Product List | Glossary On
Versions: 1 2 3 4 5 6 7 8 9 10 11 12 13 14 15 16
000
FTUS45 KABQ 291100 RRA
TAFTCC
TAF
KTCC 291143Z 2912/3012 04010KT P6SM BKN150
     FM291700 05012G20KT P6SM SCT070 BKN130
     FM292200 05008KT P6SM SCT050 BKN100
     FM300400 06006KT P6SM BKN050=

USA.gov is the U.S. government's official web portal to all federal, state and local government web resources and services.